MGGT/GUA METAR and TAF weather

Enter ICAO airport designator
Station Type Date Time Source
MGGT METAR 2024/04/17 18:00 UTC NOAA

MGGT 171800Z 18008KT 9999 BKN020TCU 28/16 Q1021 A3015 TCU E/SE CB DIST SW


Station Type Date Time Source
MGGT Decoded METAR 2024/04/17 18:00 UTC NOAA

Guatemala Aeropuertola Aurora , Guatemala (MGGT) 14-35N 090-31W 1489M
Apr 17, 2024 - 02:00 PM EDT / 2024.04.17 1800 UTC
Wind: from the S (180 degrees) at 9 MPH (8 KT):0
Visibility: greater than 7 mile(s):0
Sky conditions: mostly cloudy
Weather: Cumulonimbus clouds, towering cumulus clouds observed
Temperature: 82 F (28 C)
Dew Point: 60 F (16 C)
Relative Humidity: 48%
Pressure (altimeter): 30.15 in. Hg (1020 hPa)
ob: MGGT 171800Z 18008KT 9999 BKN020TCU 28/16 Q1021 A3015 TCU E/SE CB DIST SW
cycle: 18

Station Type Date Time Source
MGGT TAF 2024/04/17 18:09 UTC NOAA